createdAt,value
2022-09-22T00:01:40.622Z,95101.78
2022-09-22T00:04:12.381Z,95111.38
2022-09-22T00:06:47.480Z,95110.78
2022-09-22T00:09:18.388Z,95116.06
2022-09-22T00:11:49.523Z,95111.19
2022-09-22T00:14:21.497Z,95111.41
2022-09-22T00:16:52.363Z,95109.38
2022-09-22T00:19:23.758Z,95109.56
2022-09-22T00:21:54.241Z,95110.38
2022-09-22T00:24:23.925Z,95110.03
2022-09-22T00:26:53.647Z,95106.38
2022-09-22T00:29:23.593Z,95111.88
2022-09-22T00:31:52.674Z,95107.00
2022-09-22T00:34:24.424Z,95104.06
2022-09-22T00:36:54.680Z,95098.50
2022-09-22T00:39:23.318Z,95097.38
2022-09-22T00:41:54.603Z,95100.31
2022-09-22T00:44:35.390Z,95096.56
2022-09-22T00:47:13.869Z,95091.97
2022-09-22T00:49:49.627Z,95087.50
2022-09-22T00:52:23.977Z,95089.66
2022-09-22T00:54:55.340Z,95088.81
2022-09-22T00:57:26.912Z,95095.41
2022-09-22T00:59:56.448Z,95091.97
2022-09-22T01:02:25.957Z,95093.44
2022-09-22T01:04:55.403Z,95088.25
2022-09-22T01:07:29.254Z,95094.34
2022-09-22T01:09:59.065Z,95095.09
2022-09-22T01:12:30.439Z,95099.19
2022-09-22T01:15:20.865Z,95093.09
2022-09-22T01:18:05.032Z,95088.66
2022-09-22T01:21:08.653Z,95088.72
2022-09-22T01:24:24.681Z,95089.75
2022-09-22T01:27:16.908Z,95083.06
2022-09-22T01:30:23.194Z,95083.69
2022-09-22T01:33:07.136Z,95083.47
2022-09-22T01:35:46.218Z,95086.72
2022-09-22T01:38:20.564Z,95082.81
2022-09-22T01:40:54.037Z,95077.72
2022-09-22T01:43:34.201Z,95083.38
2022-09-22T01:46:10.889Z,95078.03
2022-09-22T01:48:44.389Z,95075.00
2022-09-22T01:51:18.527Z,95069.50
2022-09-22T01:53:52.905Z,95082.22
2022-09-22T01:56:25.029Z,95072.69
2022-09-22T01:58:57.037Z,95081.22
2022-09-22T02:01:30.807Z,95076.56
2022-09-22T02:04:05.116Z,95081.19
2022-09-22T02:06:38.912Z,95070.59
2022-09-22T02:09:09.360Z,95075.78
2022-09-22T02:11:38.568Z,95070.75
2022-09-22T02:14:08.541Z,95067.34
2022-09-22T02:16:39.089Z,95064.22
2022-09-22T02:19:13.685Z,95063.59
2022-09-22T02:21:45.525Z,95059.25
2022-09-22T02:24:28.966Z,95058.84
2022-09-22T02:26:58.142Z,95059.25
2022-09-22T02:29:28.484Z,95058.63
2022-09-22T02:32:00.650Z,95064.28
2022-09-22T02:34:29.868Z,95058.56
2022-09-22T02:37:06.234Z,95063.25
2022-09-22T02:39:41.124Z,95066.25
2022-09-22T02:42:23.372Z,95068.53
2022-09-22T02:44:57.705Z,95071.75
2022-09-22T02:47:33.827Z,95075.78
2022-09-22T02:50:06.937Z,95082.28
2022-09-22T02:52:37.877Z,95075.19
2022-09-22T02:55:08.359Z,95081.13
2022-09-22T02:57:37.064Z,95074.13
2022-09-22T03:00:07.341Z,95077.78
2022-09-22T03:02:37.598Z,95073.44
2022-09-22T03:05:07.223Z,95069.56
2022-09-22T03:07:36.184Z,95079.06
2022-09-22T03:10:05.742Z,95074.94
2022-09-22T03:12:34.404Z,95068.84
2022-09-22T03:15:03.334Z,95070.38
2022-09-22T03:17:33.049Z,95072.81
2022-09-22T03:20:04.375Z,95074.34
2022-09-22T03:22:33.373Z,95071.03
2022-09-22T03:25:02.255Z,95062.91
2022-09-22T03:27:32.114Z,95072.78
2022-09-22T03:30:00.806Z,95079.38
2022-09-22T03:32:29.456Z,95069.84
2022-09-22T03:34:58.324Z,95073.03
2022-09-22T03:37:28.748Z,95067.28
2022-09-22T03:39:57.521Z,95069.09
2022-09-22T03:42:26.416Z,95071.69
2022-09-22T03:44:55.144Z,95071.59
2022-09-22T03:47:23.929Z,95069.53
2022-09-22T03:49:52.767Z,95062.31
2022-09-22T03:52:21.403Z,95062.69
2022-09-22T03:54:52.355Z,95064.84
2022-09-22T03:57:21.213Z,95062.09
2022-09-22T03:59:50.012Z,95061.75
2022-09-22T04:02:18.818Z,95074.00
2022-09-22T04:04:47.603Z,95071.97
2022-09-22T04:07:16.322Z,95075.72
2022-09-22T04:09:45.082Z,95074.31
2022-09-22T04:12:15.258Z,95076.38
2022-09-22T04:14:44.000Z,95078.78
2022-09-22T04:17:12.706Z,95078.38
2022-09-22T04:19:41.384Z,95076.75
2022-09-22T04:22:10.125Z,95078.09
2022-09-22T04:24:38.897Z,95074.75
2022-09-22T04:27:19.688Z,95079.09
2022-09-22T04:29:51.092Z,95076.22
2022-09-22T04:32:20.359Z,95079.53
2022-09-22T04:34:49.087Z,95078.44
2022-09-22T04:37:17.856Z,95073.66
2022-09-22T04:39:46.529Z,95074.03
2022-09-22T04:42:15.324Z,95072.22
2022-09-22T04:44:44.126Z,95085.63
2022-09-22T04:47:14.192Z,95081.75
2022-09-22T04:49:42.945Z,95074.84
2022-09-22T04:52:11.709Z,95081.75
2022-09-22T04:54:40.490Z,95085.09
2022-09-22T04:57:09.411Z,95084.78
2022-09-22T04:59:38.289Z,95075.19
2022-09-22T05:02:07.270Z,95078.31
2022-09-22T05:04:37.511Z,95077.47
2022-09-22T05:07:06.464Z,95085.78
2022-09-22T05:09:35.625Z,95076.66
2022-09-22T05:12:04.419Z,95088.31
2022-09-22T05:14:33.671Z,95086.50
2022-09-22T05:17:02.703Z,95093.09
2022-09-22T05:19:31.492Z,95098.03
2022-09-22T05:22:01.869Z,95095.69
2022-09-22T05:24:31.146Z,95095.00
2022-09-22T05:27:00.361Z,95098.53
2022-09-22T05:29:30.547Z,95101.19
2022-09-22T05:31:59.419Z,95109.03
2022-09-22T05:34:28.054Z,95102.00
2022-09-22T05:36:56.811Z,95103.69
2022-09-22T05:39:27.121Z,95113.34
2022-09-22T05:41:55.943Z,95114.22
2022-09-22T05:44:24.815Z,95124.69
2022-09-22T05:46:53.721Z,95118.56
2022-09-22T05:49:22.582Z,95125.50
2022-09-22T05:51:55.448Z,95128.44
2022-09-22T05:54:24.610Z,95127.53
2022-09-22T05:56:54.725Z,95124.00
2022-09-22T05:59:23.406Z,95133.88
2022-09-22T06:01:56.128Z,95135.09
2022-09-22T06:04:27.489Z,95132.88
2022-09-22T06:06:56.317Z,95129.56
2022-09-22T06:09:25.056Z,95123.13
2022-09-22T06:11:55.228Z,95127.38
2022-09-22T06:14:24.107Z,95119.03
2022-09-22T06:16:53.644Z,95115.72
2022-09-22T06:19:23.437Z,95113.75
2022-09-22T06:21:52.638Z,95118.91
2022-09-22T06:24:22.538Z,95121.13
2022-09-22T06:26:51.742Z,95126.69
2022-09-22T06:29:21.985Z,95127.78
2022-09-22T06:31:50.979Z,95122.31
2022-09-22T06:34:20.083Z,95122.09
2022-09-22T06:36:48.780Z,95126.00
2022-09-22T06:39:17.662Z,95122.59
2022-09-22T06:41:46.267Z,95129.50
2022-09-22T06:44:16.646Z,95134.72
2022-09-22T06:46:47.059Z,95134.13
2022-09-22T06:49:15.894Z,95144.34
2022-09-22T06:51:44.796Z,95134.94
2022-09-22T06:54:13.627Z,95133.47
2022-09-22T06:56:42.922Z,95131.09
2022-09-22T06:59:13.669Z,95127.91
2022-09-22T07:01:43.684Z,95138.84
2022-09-22T07:04:15.064Z,95131.03
2022-09-22T07:06:45.910Z,95133.16
2022-09-22T07:09:14.614Z,95135.03
2022-09-22T07:11:44.087Z,95135.88
2022-09-22T07:14:13.076Z,95139.09
2022-09-22T07:16:43.484Z,95140.63
2022-09-22T07:19:13.732Z,95127.56
2022-09-22T07:21:44.501Z,95125.25
2022-09-22T07:24:13.467Z,95124.53
2022-09-22T07:26:44.085Z,95122.22
2022-09-22T07:29:13.898Z,95123.38
2022-09-22T07:31:43.515Z,95117.78
2022-09-22T07:34:14.238Z,95122.03
2022-09-22T07:36:43.186Z,95119.63
2022-09-22T07:39:12.287Z,95120.69
2022-09-22T07:41:43.820Z,95122.31
2022-09-22T07:44:41.013Z,95115.88
2022-09-22T07:47:13.315Z,95120.44
2022-09-22T07:49:44.290Z,95121.25
2022-09-22T07:52:14.217Z,95115.09
2022-09-22T07:54:43.132Z,95127.72
2022-09-22T07:57:12.939Z,95129.81
2022-09-22T07:59:42.077Z,95139.19
2022-09-22T08:02:11.889Z,95133.56
2022-09-22T08:04:41.279Z,95138.34
2022-09-22T08:07:11.975Z,95136.19
2022-09-22T08:09:40.946Z,95139.16
2022-09-22T08:12:10.313Z,95125.75
2022-09-22T08:14:39.279Z,95127.81
2022-09-22T08:17:12.415Z,95127.59
2022-09-22T08:19:41.707Z,95120.81
2022-09-22T08:22:13.141Z,95122.19
2022-09-22T08:24:43.352Z,95119.97
2022-09-22T08:27:12.190Z,95122.06
2022-09-22T08:29:41.114Z,95121.00
2022-09-22T08:32:09.925Z,95121.53
2022-09-22T08:34:38.592Z,95123.59
2022-09-22T08:37:07.367Z,95122.75
2022-09-22T08:39:38.277Z,95111.25
2022-09-22T08:42:14.705Z,95107.38
2022-09-22T08:44:58.615Z,95118.22
2022-09-22T08:47:50.637Z,95115.03
2022-09-22T08:50:45.035Z,95106.94
2022-09-22T08:53:18.008Z,95117.13
2022-09-22T08:55:52.200Z,95115.97
2022-09-22T08:58:37.565Z,95120.59
2022-09-22T09:01:18.833Z,95110.16
2022-09-22T09:04:11.293Z,95107.88
2022-09-22T09:06:48.888Z,95110.34
2022-09-22T09:09:34.639Z,95107.13
2022-09-22T09:12:39.512Z,95111.84
2022-09-22T09:15:26.282Z,95107.94
2022-09-22T09:17:58.746Z,95105.44
2022-09-22T09:20:35.485Z,95100.59
2022-09-22T09:23:12.320Z,95103.41
2022-09-22T09:25:42.994Z,95103.00
2022-09-22T09:28:18.487Z,95099.91
2022-09-22T09:30:52.046Z,95091.19
2022-09-22T09:33:30.039Z,95087.31
2022-09-22T09:36:00.108Z,95086.31
2022-09-22T09:38:30.924Z,95089.91
2022-09-22T09:41:11.192Z,95078.97
2022-09-22T09:43:42.951Z,95085.16
2022-09-22T09:46:27.026Z,95075.28
2022-09-22T09:49:06.619Z,95082.31
2022-09-22T09:51:39.868Z,95081.81
2022-09-22T09:54:14.437Z,95085.66
2022-09-22T09:57:03.090Z,95083.16
2022-09-22T09:59:50.845Z,95080.03
2022-09-22T10:02:22.439Z,95089.91
2022-09-22T10:04:54.564Z,95083.81
2022-09-22T10:07:27.374Z,95082.47
2022-09-22T10:09:57.343Z,95083.72
2022-09-22T10:12:31.068Z,95072.88
2022-09-22T10:15:02.806Z,95073.91
2022-09-22T10:17:34.154Z,95070.78
2022-09-22T10:20:20.553Z,95071.56
2022-09-22T10:22:50.105Z,95063.97
2022-09-22T10:25:28.277Z,95056.38
2022-09-22T10:28:07.125Z,95054.72
2022-09-22T10:30:38.688Z,95050.00
2022-09-22T10:33:15.979Z,95058.66
2022-09-22T10:35:47.294Z,95064.94
2022-09-22T10:38:20.524Z,95057.66
2022-09-22T10:40:55.401Z,95051.56
2022-09-22T10:43:41.122Z,95059.56
2022-09-22T10:46:40.300Z,95051.34
2022-09-22T10:49:14.895Z,95047.94
2022-09-22T10:51:57.969Z,95058.28
2022-09-22T10:54:47.035Z,95046.50
2022-09-22T10:57:26.958Z,95059.22
2022-09-22T11:00:11.252Z,95046.91
2022-09-22T11:03:10.033Z,95042.19
2022-09-22T11:06:13.237Z,95044.41
2022-09-22T11:09:06.449Z,95030.06
2022-09-22T11:12:00.247Z,95033.81
2022-09-22T11:14:42.973Z,95030.84
2022-09-22T11:17:31.551Z,95019.69
2022-09-22T11:20:32.106Z,95018.13
2022-09-22T11:23:27.831Z,95014.66
2022-09-22T11:26:30.301Z,95016.28
2022-09-22T11:29:23.871Z,95020.97
2022-09-22T11:31:57.345Z,95013.91
2022-09-22T11:34:34.559Z,95008.63
2022-09-22T11:37:27.213Z,95004.72
2022-09-22T11:40:21.153Z,95003.84
2022-09-22T11:43:05.176Z,95011.31
2022-09-22T11:45:50.102Z,95009.56
2022-09-22T11:48:33.181Z,95009.66
2022-09-22T11:51:19.923Z,95003.59
2022-09-22T11:54:05.824Z,95002.31
2022-09-22T11:56:41.270Z,95013.38
2022-09-22T11:59:26.307Z,95002.47
2022-09-22T12:01:58.913Z,94999.00
2022-09-22T12:04:36.177Z,95013.53
2022-09-22T12:07:11.548Z,95004.47
2022-09-22T12:09:48.030Z,95000.91
2022-09-22T12:12:20.787Z,94987.28
2022-09-22T12:14:58.349Z,94989.69
2022-09-22T12:17:35.525Z,94996.34
2022-09-22T12:20:15.033Z,94990.31
2022-09-22T12:23:03.474Z,94978.41
2022-09-22T12:25:49.307Z,94989.00
2022-09-22T12:28:25.890Z,94985.13
2022-09-22T12:31:05.111Z,94978.47
2022-09-22T12:33:35.095Z,94987.09
2022-09-22T12:36:05.375Z,94988.47
2022-09-22T12:38:34.545Z,94985.44
2022-09-22T12:41:05.417Z,94982.00
2022-09-22T12:43:36.813Z,94980.44
2022-09-22T12:46:14.708Z,94977.28
2022-09-22T12:48:48.113Z,94981.00
2022-09-22T12:51:32.792Z,94987.50
2022-09-22T12:54:37.145Z,94982.16
2022-09-22T12:57:38.135Z,94966.00
2022-09-22T13:00:32.830Z,94977.00
2022-09-22T13:03:24.397Z,94980.41
2022-09-22T13:05:54.700Z,94978.00
2022-09-22T13:08:26.576Z,94982.59
2022-09-22T13:11:02.755Z,94981.28
2022-09-22T13:13:50.861Z,94980.19
2022-09-22T13:16:37.588Z,94978.06
2022-09-22T13:19:15.118Z,94978.88
2022-09-22T13:21:44.056Z,94981.03
2022-09-22T13:24:23.544Z,94990.34
2022-09-22T13:27:05.304Z,94985.78
2022-09-22T13:29:34.679Z,94988.41
2022-09-22T13:32:18.594Z,94973.19
2022-09-22T13:34:47.819Z,94967.78
2022-09-22T13:37:20.495Z,94981.66
2022-09-22T13:39:52.854Z,94980.31
2022-09-22T13:42:24.339Z,94979.75
2022-09-22T13:44:59.574Z,94977.31
2022-09-22T13:47:30.394Z,94973.88
2022-09-22T13:50:06.112Z,94974.97
2022-09-22T13:52:39.620Z,94966.22
2022-09-22T13:55:14.226Z,94975.88
2022-09-22T13:57:44.152Z,94977.78
2022-09-22T14:00:24.794Z,94983.41
2022-09-22T14:02:57.918Z,94978.09
2022-09-22T14:05:28.390Z,94969.50
2022-09-22T14:08:11.966Z,94969.00
2022-09-22T14:10:43.645Z,94970.03
2022-09-22T14:13:37.740Z,94970.25
2022-09-22T14:16:23.687Z,94974.84
2022-09-22T14:18:59.497Z,94983.41
2022-09-22T14:21:28.381Z,94987.16
2022-09-22T14:23:57.846Z,94983.94
2022-09-22T14:26:33.575Z,94983.94
2022-09-22T14:29:14.953Z,94983.44
2022-09-22T14:31:48.457Z,94989.81
2022-09-22T14:34:24.935Z,94990.56
2022-09-22T14:36:56.399Z,94986.63
2022-09-22T14:39:31.789Z,94994.91
2022-09-22T14:42:09.322Z,94996.94
2022-09-22T14:44:49.919Z,94998.25
2022-09-22T14:47:28.251Z,94997.19
2022-09-22T14:50:20.252Z,95004.59
2022-09-22T14:52:58.079Z,95005.31
2022-09-22T14:55:32.490Z,94997.47
2022-09-22T14:58:05.351Z,95002.03
2022-09-22T15:00:52.020Z,95004.84
2022-09-22T15:03:27.967Z,95009.84
2022-09-22T15:06:07.670Z,95018.59
2022-09-22T15:08:37.473Z,95017.19
2022-09-22T15:11:07.564Z,95022.22
2022-09-22T15:13:41.629Z,95020.84
2022-09-22T15:16:36.958Z,95024.59
2022-09-22T15:19:06.419Z,95022.16
2022-09-22T15:21:40.779Z,95022.16
2022-09-22T15:24:12.998Z,95026.41
2022-09-22T15:26:43.845Z,95018.34
2022-09-22T15:29:13.521Z,95027.66
2022-09-22T15:31:42.389Z,95025.25
2022-09-22T15:34:13.935Z,95026.03
2022-09-22T15:36:50.170Z,95027.16
2022-09-22T15:39:24.251Z,95026.63
2022-09-22T15:41:54.384Z,95028.69
2022-09-22T15:44:23.289Z,95029.81
2022-09-22T15:46:55.412Z,95023.69
2022-09-22T15:49:26.658Z,95030.31
2022-09-22T15:51:57.003Z,95025.97
2022-09-22T15:54:27.753Z,95036.63
2022-09-22T15:56:58.134Z,95033.97
2022-09-22T15:59:29.268Z,95030.97
2022-09-22T16:01:59.645Z,95039.75
2022-09-22T16:04:30.209Z,95036.28
2022-09-22T16:07:04.220Z,95031.13
2022-09-22T16:09:33.522Z,95034.03
2022-09-22T16:12:03.387Z,95032.59
2022-09-22T16:14:32.398Z,95034.34
2022-09-22T16:17:01.398Z,95029.56
2022-09-22T16:19:32.244Z,95033.25
2022-09-22T16:22:02.928Z,95018.91
2022-09-22T16:24:32.799Z,95038.84
2022-09-22T16:27:02.275Z,95037.53
2022-09-22T16:29:31.283Z,95036.97
2022-09-22T16:32:00.084Z,95028.94
2022-09-22T16:34:29.473Z,95041.06
2022-09-22T16:36:58.438Z,95039.41
2022-09-22T16:39:28.607Z,95033.69
2022-09-22T16:41:57.404Z,95034.69
2022-09-22T16:44:26.684Z,95033.78
2022-09-22T16:46:55.551Z,95041.19
2022-09-22T16:49:25.845Z,95034.22
2022-09-22T16:51:55.256Z,95040.81
2022-09-22T16:54:24.951Z,95043.47
2022-09-22T16:56:55.586Z,95044.19
2022-09-22T16:59:24.971Z,95049.03
2022-09-22T17:01:53.978Z,95041.50
2022-09-22T17:04:22.865Z,95049.47
2022-09-22T17:06:51.850Z,95049.72
2022-09-22T17:09:20.860Z,95054.94
2022-09-22T17:11:50.038Z,95059.16
2022-09-22T17:14:23.187Z,95053.75
2022-09-22T17:16:53.706Z,95052.63
2022-09-22T17:19:24.449Z,95059.78
2022-09-22T17:21:55.482Z,95058.94
2022-09-22T17:24:25.827Z,95061.81
2022-09-22T17:26:56.657Z,95066.84
2022-09-22T17:29:29.103Z,95065.47
2022-09-22T17:31:59.753Z,95072.25
2022-09-22T17:34:29.798Z,95066.69
2022-09-22T17:36:58.801Z,95069.09
2022-09-22T17:39:29.020Z,95075.47
2022-09-22T17:41:57.821Z,95079.16
2022-09-22T17:44:33.621Z,95079.13
2022-09-22T17:47:19.439Z,95079.13
2022-09-22T17:50:05.568Z,95080.69
2022-09-22T17:52:51.879Z,95085.31
2022-09-22T17:55:25.567Z,95088.25
2022-09-22T17:57:56.508Z,95087.13
2022-09-22T18:00:26.898Z,95097.41
2022-09-22T18:02:56.714Z,95091.69
2022-09-22T18:05:27.388Z,95092.50
2022-09-22T18:07:58.789Z,95104.59
2022-09-22T18:10:32.317Z,95104.84
2022-09-22T18:13:02.483Z,95110.06
2022-09-22T18:15:32.614Z,95102.97
2022-09-22T18:18:01.590Z,95107.03
2022-09-22T18:20:34.308Z,95102.31
2022-09-22T18:23:03.324Z,95095.16
2022-09-22T18:25:34.147Z,95097.72
2022-09-22T18:28:04.126Z,95100.53
2022-09-22T18:30:34.364Z,95097.41
2022-09-22T18:33:03.292Z,95104.22
2022-09-22T18:35:32.392Z,95098.00
2022-09-22T18:38:01.224Z,95097.19
2022-09-22T18:40:30.265Z,95094.06
2022-09-22T18:42:59.585Z,95088.44
2022-09-22T18:45:28.335Z,95090.97
2022-09-22T18:47:59.497Z,95083.44
2022-09-22T18:50:34.468Z,95080.44
2022-09-22T18:53:03.413Z,95077.22
2022-09-22T18:55:32.620Z,95084.03
2022-09-22T18:58:01.326Z,95079.47
2022-09-22T19:00:30.030Z,95076.50
2022-09-22T19:03:00.504Z,95088.34
2022-09-22T19:05:29.378Z,95086.28
2022-09-22T19:08:00.914Z,95091.56
2022-09-22T19:10:29.948Z,95095.50
2022-09-22T19:12:59.733Z,95092.97
2022-09-22T19:15:28.788Z,95096.19
2022-09-22T19:17:57.827Z,95100.69
2022-09-22T19:20:28.729Z,95094.59
2022-09-22T19:22:57.499Z,95102.22
2022-09-22T19:25:26.830Z,95103.69
2022-09-22T19:27:56.140Z,95104.59
2022-09-22T19:30:28.419Z,95103.78
2022-09-22T19:32:59.644Z,95109.00
2022-09-22T19:35:30.362Z,95107.59
2022-09-22T19:37:59.794Z,95114.38
2022-09-22T19:40:28.755Z,95108.97
2022-09-22T19:42:57.433Z,95105.75
2022-09-22T19:45:27.056Z,95110.03
2022-09-22T19:47:57.114Z,95110.22
2022-09-22T19:50:26.272Z,95108.31
2022-09-22T19:52:56.442Z,95111.84
2022-09-22T19:55:25.290Z,95109.06
2022-09-22T19:57:54.405Z,95114.19
2022-09-22T20:00:26.461Z,95118.91
2022-09-22T20:02:58.923Z,95127.88
2022-09-22T20:05:31.666Z,95123.50
2022-09-22T20:08:02.296Z,95126.59
2022-09-22T20:10:31.723Z,95130.16
2022-09-22T20:13:00.922Z,95124.06
2022-09-22T20:15:29.599Z,95124.88
2022-09-22T20:17:58.235Z,95120.69
2022-09-22T20:20:30.707Z,95121.03
2022-09-22T20:23:01.815Z,95125.91
2022-09-22T20:25:33.064Z,95122.06
2022-09-22T20:28:01.778Z,95126.44
2022-09-22T20:30:30.450Z,95121.16
2022-09-22T20:32:59.537Z,95122.41
2022-09-22T20:35:28.381Z,95125.38
2022-09-22T20:37:58.464Z,95123.53
2022-09-22T20:40:29.244Z,95119.28
2022-09-22T20:42:58.284Z,95119.63
2022-09-22T20:45:27.399Z,95129.03
2022-09-22T20:47:56.486Z,95128.91
2022-09-22T20:50:25.523Z,95137.28
2022-09-22T20:52:55.648Z,95138.06
2022-09-22T20:55:24.453Z,95135.38
2022-09-22T20:57:54.892Z,95137.00
2022-09-22T21:00:23.751Z,95138.03
2022-09-22T21:02:53.712Z,95148.47
2022-09-22T21:05:23.046Z,95145.47
2022-09-22T21:08:12.873Z,95141.19
2022-09-22T21:10:40.515Z,95149.44
2022-09-22T21:13:10.686Z,95150.78
2022-09-22T21:15:39.532Z,95153.84
2022-09-22T21:18:08.170Z,95159.94
2022-09-22T21:20:36.889Z,95153.84
2022-09-22T21:23:05.636Z,95151.41
2022-09-22T21:25:34.235Z,95160.25
2022-09-22T21:28:03.153Z,95145.41
2022-09-22T21:30:33.224Z,95152.38
2022-09-22T21:33:02.814Z,95154.78
2022-09-22T21:35:31.353Z,95151.66
2022-09-22T21:37:59.893Z,95148.56
2022-09-22T21:40:28.729Z,95154.06
2022-09-22T21:42:57.616Z,95149.00
2022-09-22T21:45:26.331Z,95152.06
2022-09-22T21:47:56.412Z,95150.25
2022-09-22T21:50:25.061Z,95151.34
2022-09-22T21:52:54.096Z,95151.78
2022-09-22T21:55:22.839Z,95149.53
2022-09-22T21:57:54.335Z,95144.03
2022-09-22T22:00:48.126Z,95146.72
2022-09-22T22:03:30.488Z,95153.19
2022-09-22T22:06:13.546Z,95153.81
2022-09-22T22:08:44.651Z,95158.03
2022-09-22T22:11:16.249Z,95158.03
2022-09-22T22:13:46.927Z,95151.69
2022-09-22T22:16:16.135Z,95152.28
2022-09-22T22:18:46.409Z,95152.59
2022-09-22T22:21:17.640Z,95147.16
2022-09-22T22:23:48.585Z,95148.53
2022-09-22T22:26:20.857Z,95157.50
2022-09-22T22:28:50.579Z,95154.84
2022-09-22T22:31:21.308Z,95148.19
2022-09-22T22:33:51.852Z,95134.41
2022-09-22T22:36:20.891Z,95145.97
2022-09-22T22:38:53.780Z,95142.53
2022-09-22T22:41:22.533Z,95142.38
2022-09-22T22:43:51.323Z,95140.22
2022-09-22T22:46:20.308Z,95142.06
2022-09-22T22:48:50.803Z,95140.34
2022-09-22T22:51:21.727Z,95135.66
2022-09-22T22:53:50.857Z,95131.06
2022-09-22T22:56:20.968Z,95131.00
2022-09-22T22:58:51.300Z,95127.38
2022-09-22T23:01:22.270Z,95127.00
2022-09-22T23:03:54.929Z,95139.19
2022-09-22T23:06:25.744Z,95130.53
2022-09-22T23:08:54.942Z,95126.88
2022-09-22T23:11:27.287Z,95128.19
2022-09-22T23:13:59.736Z,95117.19
2022-09-22T23:16:29.767Z,95122.53
2022-09-22T23:19:02.648Z,95126.34
2022-09-22T23:21:31.840Z,95117.63
2022-09-22T23:24:01.199Z,95124.75
2022-09-22T23:26:30.447Z,95126.72
2022-09-22T23:29:00.099Z,95130.16
2022-09-22T23:31:29.188Z,95124.88
2022-09-22T23:33:59.433Z,95122.44
2022-09-22T23:36:30.087Z,95126.72
2022-09-22T23:39:04.315Z,95125.91
2022-09-22T23:41:35.288Z,95118.38
2022-09-22T23:44:07.054Z,95112.34
2022-09-22T23:46:37.598Z,95108.94
2022-09-22T23:49:08.145Z,95103.47
2022-09-22T23:51:37.148Z,95101.84
2022-09-22T23:54:06.289Z,95104.91
2022-09-22T23:56:35.176Z,95113.69
2022-09-22T23:59:03.886Z,95110.88
